createdAt,value
2022-11-05T00:02:00.196Z,18.38
2022-11-05T00:04:46.409Z,18.52
2022-11-05T00:07:39.238Z,18.47
2022-11-05T00:10:24.984Z,18.37
2022-11-05T00:13:16.677Z,18.36
2022-11-05T00:16:02.599Z,18.32
2022-11-05T00:18:30.019Z,18.40
2022-11-05T00:20:57.241Z,18.38
2022-11-05T00:23:42.803Z,18.22
2022-11-05T00:26:11.754Z,18.25
2022-11-05T00:28:44.140Z,18.34
2022-11-05T00:31:13.806Z,18.39
2022-11-05T00:33:42.855Z,18.42
2022-11-05T00:36:11.303Z,18.44
2022-11-05T00:38:38.404Z,18.41
2022-11-05T00:41:05.784Z,18.47
2022-11-05T00:43:51.168Z,18.41
2022-11-05T00:46:18.576Z,18.48
2022-11-05T00:49:03.985Z,18.19
2022-11-05T00:51:31.107Z,18.37
2022-11-05T00:53:58.248Z,18.10
2022-11-05T00:56:25.331Z,18.38
2022-11-05T00:58:52.340Z,18.34
2022-11-05T01:01:23.149Z,18.40
2022-11-05T01:03:51.877Z,18.37
2022-11-05T01:06:20.001Z,18.34
2022-11-05T01:08:50.532Z,18.44
2022-11-05T01:11:43.169Z,18.35
2022-11-05T01:14:13.281Z,18.41
2022-11-05T01:16:48.857Z,18.25
2022-11-05T01:19:18.150Z,18.40
2022-11-05T01:21:46.209Z,18.38
2022-11-05T01:24:13.486Z,18.35
2022-11-05T01:26:45.961Z,18.34
2022-11-05T01:29:16.731Z,18.38
2022-11-05T01:31:44.272Z,18.23
2022-11-05T01:34:14.618Z,18.17
2022-11-05T01:36:45.546Z,18.15
2022-11-05T01:39:15.757Z,18.16
2022-11-05T01:41:43.071Z,18.09
2022-11-05T01:44:50.578Z,18.05
2022-11-05T01:47:46.955Z,18.03
2022-11-05T01:50:26.579Z,17.95
2022-11-05T01:52:58.907Z,18.15
2022-11-05T01:55:35.378Z,18.04
2022-11-05T01:58:03.865Z,18.06
2022-11-05T02:00:31.745Z,17.95
2022-11-05T02:02:59.007Z,18.15
2022-11-05T02:05:26.551Z,18.12
2022-11-05T02:07:55.423Z,17.98
2022-11-05T02:10:26.174Z,17.99
2022-11-05T02:12:53.411Z,17.91
2022-11-05T02:16:01.977Z,17.87
2022-11-05T02:18:39.905Z,17.84
2022-11-05T02:21:36.274Z,17.80
2022-11-05T02:24:32.371Z,17.73
2022-11-05T02:27:07.714Z,17.60
2022-11-05T02:30:09.417Z,17.48
2022-11-05T02:32:45.235Z,17.73
2022-11-05T02:35:17.134Z,17.57
2022-11-05T02:37:52.306Z,17.66
2022-11-05T02:40:36.690Z,17.53
2022-11-05T02:43:16.857Z,17.49
2022-11-05T02:46:09.137Z,17.44
2022-11-05T02:48:57.837Z,17.40
2022-11-05T02:51:36.645Z,17.46
2022-11-05T02:54:19.399Z,17.41
2022-11-05T02:56:54.124Z,17.55
2022-11-05T03:02:39.138Z,17.36
2022-11-05T03:05:06.673Z,17.65
2022-11-05T03:07:59.804Z,17.41
2022-11-05T03:10:57.670Z,17.26
2022-11-05T03:13:40.056Z,17.43
2022-11-05T03:16:18.183Z,17.49
2022-11-05T03:19:16.513Z,17.51
2022-11-05T03:21:53.524Z,17.46
2022-11-05T03:24:25.478Z,17.33
2022-11-05T03:26:55.372Z,17.55
2022-11-05T03:29:30.570Z,17.45
2022-11-05T03:32:02.061Z,17.50
2022-11-05T03:34:42.114Z,17.37
2022-11-05T03:37:11.318Z,17.26
2022-11-05T03:39:42.622Z,17.32
2022-11-05T03:42:15.020Z,17.09
2022-11-05T03:44:57.984Z,17.32
2022-11-05T03:47:32.995Z,17.23
2022-11-05T03:50:28.750Z,17.18
2022-11-05T03:53:05.251Z,17.14
2022-11-05T03:55:57.109Z,17.20
2022-11-05T03:58:25.132Z,17.17
2022-11-05T04:00:55.632Z,17.06
2022-11-05T04:03:25.687Z,17.01
2022-11-05T04:06:15.058Z,17.04
2022-11-05T04:09:00.837Z,16.82
2022-11-05T04:11:46.803Z,17.07
2022-11-05T04:14:13.944Z,16.84
2022-11-05T04:16:59.527Z,16.51
2022-11-05T04:19:45.052Z,16.77
2022-11-05T04:22:30.674Z,16.82
2022-11-05T04:24:57.752Z,16.81
2022-11-05T04:27:24.927Z,16.64
2022-11-05T04:30:10.771Z,16.72
2022-11-05T04:32:37.986Z,16.76
2022-11-05T04:35:05.312Z,16.70
2022-11-05T04:37:32.577Z,16.82
2022-11-05T04:39:59.790Z,16.67
2022-11-05T04:42:28.362Z,17.00
2022-11-05T04:44:58.379Z,16.89
2022-11-05T04:47:28.512Z,16.93
2022-11-05T04:49:55.691Z,16.66
2022-11-05T04:52:22.883Z,16.77
2022-11-05T04:54:50.063Z,16.91
2022-11-05T04:57:17.222Z,16.91
2022-11-05T05:00:16.104Z,16.90
2022-11-05T05:02:43.396Z,16.92
2022-11-05T05:05:17.176Z,16.64
2022-11-05T05:07:44.392Z,16.77
2022-11-05T05:10:12.535Z,16.80
2022-11-05T05:12:42.344Z,16.66
2022-11-05T05:15:10.470Z,16.62
2022-11-05T05:17:41.500Z,16.67
2022-11-05T05:20:27.557Z,16.86
2022-11-05T05:22:55.420Z,16.52
2022-11-05T05:25:23.090Z,16.70
2022-11-05T05:27:50.516Z,16.99
2022-11-05T05:30:18.309Z,16.94
2022-11-05T05:32:48.231Z,16.78
2022-11-05T05:35:16.209Z,17.02
2022-11-05T05:37:44.467Z,16.76
2022-11-05T05:40:12.140Z,16.86
2022-11-05T05:42:43.155Z,16.59
2022-11-05T05:45:13.108Z,16.79
2022-11-05T05:47:40.342Z,16.75
2022-11-05T05:50:07.746Z,16.72
2022-11-05T05:52:34.868Z,16.79
2022-11-05T05:55:03.172Z,16.71
2022-11-05T05:57:30.374Z,16.77
2022-11-05T05:59:57.577Z,16.72
2022-11-05T06:02:25.300Z,16.53
2022-11-05T06:04:52.440Z,16.60
2022-11-05T06:07:19.587Z,16.70
2022-11-05T06:09:47.050Z,16.55
2022-11-05T06:12:16.343Z,16.77
2022-11-05T06:14:43.466Z,16.68
2022-11-05T06:17:10.624Z,16.64
2022-11-05T06:19:37.807Z,16.74
2022-11-05T06:22:06.285Z,16.54
2022-11-05T06:24:39.484Z,16.52
2022-11-05T06:27:08.070Z,16.55
2022-11-05T06:29:35.426Z,16.58
2022-11-05T06:32:05.842Z,16.52
2022-11-05T06:34:37.052Z,16.75
2022-11-05T06:37:06.887Z,16.78
2022-11-05T06:39:37.545Z,16.49
2022-11-05T06:42:17.891Z,16.45
2022-11-05T06:44:53.498Z,16.40
2022-11-05T06:47:23.781Z,16.45
2022-11-05T06:49:50.927Z,16.58
2022-11-05T06:52:18.145Z,16.72
2022-11-05T06:54:46.371Z,16.67
2022-11-05T06:57:13.805Z,16.60
2022-11-05T06:59:41.551Z,16.83
2022-11-05T07:02:12.646Z,16.82
2022-11-05T07:04:40.974Z,16.77
2022-11-05T07:07:08.009Z,17.01
2022-11-05T07:09:38.765Z,16.90
2022-11-05T07:12:08.292Z,16.87
2022-11-05T07:14:35.709Z,17.08
2022-11-05T07:17:03.109Z,17.05
2022-11-05T07:19:33.656Z,17.09
2022-11-05T07:22:01.137Z,17.10
2022-11-05T07:24:28.325Z,17.09
2022-11-05T07:26:55.351Z,17.09
2022-11-05T07:29:22.760Z,17.22
2022-11-05T07:31:53.168Z,17.10
2022-11-05T07:34:20.437Z,17.13
2022-11-05T07:36:50.702Z,17.27
2022-11-05T07:39:17.966Z,17.25
2022-11-05T07:41:53.475Z,17.28
2022-11-05T07:44:21.926Z,17.43
2022-11-05T07:46:51.914Z,17.37
2022-11-05T07:49:27.064Z,17.63
2022-11-05T07:51:54.524Z,17.53
2022-11-05T07:54:26.876Z,17.72
2022-11-05T07:56:54.773Z,17.80
2022-11-05T07:59:24.159Z,17.88
2022-11-05T08:01:54.988Z,17.81
2022-11-05T08:04:25.606Z,17.74
2022-11-05T08:06:57.803Z,18.10
2022-11-05T08:09:24.925Z,18.11
2022-11-05T08:11:59.823Z,18.05
2022-11-05T08:14:29.877Z,18.39
2022-11-05T08:16:58.514Z,18.51
2022-11-05T08:19:25.615Z,18.67
2022-11-05T08:21:52.922Z,18.94
2022-11-05T08:24:20.160Z,19.21
2022-11-05T08:26:47.269Z,19.55
2022-11-05T08:29:14.462Z,19.95
2022-11-05T08:31:41.673Z,20.27
2022-11-05T08:34:11.591Z,20.37
2022-11-05T08:36:42.290Z,20.50
2022-11-05T08:39:14.270Z,20.79
2022-11-05T08:41:47.018Z,20.98
2022-11-05T08:44:14.103Z,20.92
2022-11-05T08:46:41.808Z,21.06
2022-11-05T08:49:09.205Z,21.23
2022-11-05T08:51:36.769Z,21.34
2022-11-05T08:54:04.062Z,21.48
2022-11-05T08:56:36.741Z,21.62
2022-11-05T08:59:06.518Z,21.54
2022-11-05T09:01:34.742Z,21.72
2022-11-05T09:04:02.324Z,22.08
2022-11-05T09:06:32.547Z,22.26
2022-11-05T09:09:02.777Z,22.51
2022-11-05T09:11:56.959Z,22.73
2022-11-05T09:14:18.745Z,23.18
2022-11-05T09:16:56.136Z,23.42
2022-11-05T09:19:26.360Z,23.38
2022-11-05T09:21:54.923Z,23.69
2022-11-05T09:24:22.126Z,23.82
2022-11-05T09:26:49.481Z,23.62
2022-11-05T09:29:19.543Z,23.79
2022-11-05T09:31:49.359Z,24.24
2022-11-05T09:34:22.818Z,24.51
2022-11-05T09:36:49.965Z,24.70
2022-11-05T09:39:17.129Z,25.00
2022-11-05T09:41:46.242Z,25.29
2022-11-05T09:44:22.569Z,25.49
2022-11-05T09:47:07.766Z,25.75
2022-11-05T09:49:59.637Z,25.90
2022-11-05T09:52:36.039Z,26.28
2022-11-05T09:55:09.696Z,26.61
2022-11-05T09:57:52.506Z,26.59
2022-11-05T10:00:19.963Z,26.98
2022-11-05T10:03:02.948Z,27.06
2022-11-05T10:05:34.273Z,26.72
2022-11-05T10:08:22.970Z,26.46
2022-11-05T10:10:56.726Z,26.75
2022-11-05T10:13:47.397Z,26.86
2022-11-05T10:16:29.552Z,27.36
2022-11-05T10:19:24.746Z,27.78
2022-11-05T10:22:10.860Z,28.15
2022-11-05T10:24:43.167Z,28.19
2022-11-05T10:27:38.882Z,28.65
2022-11-05T10:30:08.877Z,28.89
2022-11-05T10:32:39.850Z,29.13
2022-11-05T10:35:15.514Z,29.45
2022-11-05T10:37:43.825Z,29.17
2022-11-05T10:40:30.537Z,29.21
2022-11-05T10:43:14.545Z,29.07
2022-11-05T10:46:13.970Z,29.51
2022-11-05T10:49:19.271Z,29.42
2022-11-05T10:52:01.250Z,29.73
2022-11-05T10:54:35.281Z,30.15
2022-11-05T10:57:30.761Z,30.15
2022-11-05T11:00:20.009Z,30.41
2022-11-05T11:03:00.042Z,30.86
2022-11-05T11:05:36.119Z,30.58
2022-11-05T11:08:13.832Z,31.15
2022-11-05T11:10:49.295Z,31.11
2022-11-05T11:13:52.379Z,31.26
2022-11-05T11:16:23.869Z,31.90
2022-11-05T11:19:03.906Z,32.19
2022-11-05T11:21:34.514Z,32.00
2022-11-05T11:24:05.160Z,31.92
2022-11-05T11:26:40.931Z,32.04
2022-11-05T11:29:29.152Z,31.29
2022-11-05T11:32:03.005Z,31.98
2022-11-05T11:34:36.179Z,31.05
2022-11-05T11:37:19.331Z,31.67
2022-11-05T11:39:54.941Z,32.50
2022-11-05T11:42:39.630Z,32.64
2022-11-05T11:45:19.926Z,32.87
2022-11-05T11:47:58.154Z,33.18
2022-11-05T11:50:45.831Z,33.70
2022-11-05T11:53:24.534Z,33.55
2022-11-05T11:55:59.764Z,34.49
2022-11-05T11:58:39.730Z,34.60
2022-11-05T12:01:09.814Z,35.00
2022-11-05T12:03:59.297Z,35.11
2022-11-05T12:06:56.318Z,35.43
2022-11-05T12:09:53.446Z,35.39
2022-11-05T12:12:55.985Z,35.25
2022-11-05T12:15:29.136Z,35.28
2022-11-05T12:18:03.186Z,35.60
2022-11-05T12:20:48.979Z,35.25
2022-11-05T12:24:03.035Z,34.44
2022-11-05T12:26:47.913Z,34.87
2022-11-05T12:29:48.549Z,34.79
2022-11-05T12:32:31.425Z,34.80
2022-11-05T12:35:47.395Z,35.08
2022-11-05T12:38:42.657Z,35.48
2022-11-05T12:41:50.638Z,35.51
2022-11-05T12:44:45.692Z,35.66
2022-11-05T12:47:49.825Z,35.68
2022-11-05T12:50:52.549Z,36.09
2022-11-05T12:53:38.365Z,36.01
2022-11-05T12:56:24.362Z,36.38
2022-11-05T12:59:06.635Z,36.62
2022-11-05T13:01:43.345Z,36.35
2022-11-05T13:05:05.523Z,35.66
2022-11-05T13:07:40.458Z,35.85
2022-11-05T13:10:17.508Z,35.14
2022-11-05T13:12:49.609Z,35.48
2022-11-05T13:16:01.622Z,34.24
2022-11-05T13:19:08.542Z,33.60
2022-11-05T13:21:48.125Z,33.47
2022-11-05T13:24:33.460Z,33.49
2022-11-05T13:27:19.499Z,32.42
2022-11-05T13:29:58.482Z,30.88
2022-11-05T13:32:29.618Z,30.82
2022-11-05T13:34:58.951Z,30.63
2022-11-05T13:37:51.666Z,30.32
2022-11-05T13:40:25.270Z,30.94
2022-11-05T13:43:11.055Z,29.37
2022-11-05T13:46:16.116Z,30.31
2022-11-05T13:49:21.237Z,29.96
2022-11-05T13:52:06.442Z,29.12
2022-11-05T13:54:42.552Z,29.45
2022-11-05T13:57:42.137Z,29.90
2022-11-05T14:00:19.699Z,29.15
2022-11-05T14:02:55.441Z,29.59
2022-11-05T14:05:26.093Z,29.46
2022-11-05T14:08:02.658Z,30.05
2022-11-05T14:10:42.827Z,30.11
2022-11-05T14:13:28.915Z,30.00
2022-11-05T14:16:08.347Z,30.23
2022-11-05T14:18:40.308Z,30.59
2022-11-05T14:21:28.047Z,29.91
2022-11-05T14:24:21.349Z,29.76
2022-11-05T14:27:22.763Z,29.14
2022-11-05T14:29:51.560Z,29.08
2022-11-05T14:32:24.551Z,28.99
2022-11-05T14:35:17.503Z,28.54
2022-11-05T14:37:55.008Z,27.66
2022-11-05T14:40:57.928Z,27.31
2022-11-05T14:43:32.408Z,27.24
2022-11-05T14:46:08.495Z,26.70
2022-11-05T14:49:09.666Z,27.23
2022-11-05T14:51:46.185Z,27.00
2022-11-05T14:54:30.618Z,26.48
2022-11-05T14:57:00.644Z,26.00
2022-11-05T14:59:28.697Z,26.06
2022-11-05T15:02:03.264Z,25.95
2022-11-05T15:04:45.991Z,26.08
2022-11-05T15:07:22.850Z,25.85
2022-11-05T15:10:08.920Z,25.65
2022-11-05T15:12:51.918Z,25.21
2022-11-05T15:15:39.072Z,24.40
2022-11-05T15:18:32.062Z,24.62
2022-11-05T15:21:02.329Z,24.93
2022-11-05T15:23:46.004Z,24.85
2022-11-05T15:26:25.921Z,24.18
2022-11-05T15:28:56.775Z,24.42
2022-11-05T15:31:34.538Z,24.75
2022-11-05T15:34:24.853Z,24.86
2022-11-05T15:36:58.046Z,24.83
2022-11-05T15:39:31.566Z,24.84
2022-11-05T15:41:59.484Z,24.41
2022-11-05T15:44:49.756Z,24.12
2022-11-05T15:47:27.169Z,24.34
2022-11-05T15:49:59.723Z,24.13
2022-11-05T15:52:50.718Z,23.68
2022-11-05T15:55:25.952Z,23.57
2022-11-05T15:57:53.133Z,23.88
2022-11-05T16:00:29.333Z,23.82
2022-11-05T16:03:16.277Z,23.70
2022-11-05T16:05:46.933Z,23.67
2022-11-05T16:08:28.819Z,23.47
2022-11-05T16:10:59.209Z,23.42
2022-11-05T16:13:42.747Z,23.48
2022-11-05T16:16:40.046Z,23.57
2022-11-05T16:19:40.110Z,23.25
2022-11-05T16:22:12.746Z,23.04
2022-11-05T16:24:42.948Z,23.22
2022-11-05T16:27:27.208Z,22.84
2022-11-05T16:29:59.776Z,22.96
2022-11-05T16:32:33.308Z,23.02
2022-11-05T16:35:13.153Z,23.09
2022-11-05T16:37:51.985Z,23.16
2022-11-05T16:40:31.473Z,23.23
2022-11-05T16:43:33.429Z,23.26
2022-11-05T16:46:03.409Z,23.35
2022-11-05T16:48:38.554Z,23.21
2022-11-05T16:51:15.428Z,23.10
2022-11-05T16:53:54.626Z,23.00
2022-11-05T16:56:35.567Z,22.87
2022-11-05T16:59:18.803Z,22.93
2022-11-05T17:01:56.117Z,23.04
2022-11-05T17:04:32.093Z,23.06
2022-11-05T17:07:12.404Z,23.12
2022-11-05T17:09:43.069Z,23.03
2022-11-05T17:12:26.787Z,23.08
2022-11-05T17:15:09.753Z,23.02
2022-11-05T17:17:41.984Z,23.11
2022-11-05T17:20:25.316Z,23.06
2022-11-05T17:22:53.958Z,23.17
2022-11-05T17:25:28.759Z,23.21
2022-11-05T17:28:05.709Z,23.22
2022-11-05T17:30:36.686Z,23.22
2022-11-05T17:33:18.634Z,23.23
2022-11-05T17:35:49.361Z,23.20
2022-11-05T17:38:26.347Z,23.20
2022-11-05T17:40:56.258Z,23.12
2022-11-05T17:43:26.289Z,23.16
2022-11-05T17:46:01.519Z,23.10
2022-11-05T17:48:32.989Z,23.08
2022-11-05T17:51:01.579Z,23.07
2022-11-05T17:53:34.590Z,22.94
2022-11-05T17:56:34.788Z,23.00
2022-11-05T17:59:08.909Z,23.06
2022-11-05T18:01:48.236Z,23.08
2022-11-05T18:04:21.879Z,23.07
2022-11-05T18:07:03.729Z,23.06
2022-11-05T18:09:42.175Z,23.05
2022-11-05T18:12:20.184Z,23.04
2022-11-05T18:15:17.425Z,23.02
2022-11-05T18:17:51.196Z,22.97
2022-11-05T18:20:36.054Z,22.96
2022-11-05T18:23:18.314Z,22.91
2022-11-05T18:25:53.654Z,22.89
2022-11-05T18:28:37.399Z,22.85
2022-11-05T18:31:23.396Z,22.78
2022-11-05T18:33:57.325Z,22.72
2022-11-05T18:36:37.766Z,22.70
2022-11-05T18:39:31.752Z,22.65
2022-11-05T18:42:02.659Z,22.68
2022-11-05T18:44:39.209Z,22.69
2022-11-05T18:47:24.550Z,22.64
2022-11-05T18:50:15.081Z,22.57
2022-11-05T18:52:56.086Z,22.56
2022-11-05T18:55:46.510Z,22.47
2022-11-05T18:58:18.416Z,22.44
2022-11-05T19:01:06.481Z,22.42
2022-11-05T19:03:53.396Z,22.38
2022-11-05T19:10:02.990Z,22.30
2022-11-05T19:12:49.045Z,22.29
2022-11-05T19:18:53.735Z,22.24
2022-11-05T19:21:42.846Z,22.20
2022-11-05T19:24:38.345Z,22.13
2022-11-05T19:27:14.240Z,22.14
2022-11-05T19:30:16.356Z,22.13
2022-11-05T19:32:53.273Z,22.11
2022-11-05T19:35:28.961Z,21.92
2022-11-05T19:38:14.872Z,21.94
2022-11-05T19:40:54.747Z,21.90
2022-11-05T19:44:03.546Z,21.87
2022-11-05T19:46:58.556Z,21.84
2022-11-05T19:49:34.877Z,21.88
2022-11-05T19:52:36.398Z,21.81
2022-11-05T19:55:20.960Z,21.81
2022-11-05T19:58:18.389Z,21.75
2022-11-05T20:01:02.348Z,21.66
2022-11-05T20:03:54.494Z,21.61
2022-11-05T20:06:39.215Z,21.57
2022-11-05T20:09:28.724Z,21.49
2022-11-05T20:12:19.913Z,21.45
2022-11-05T20:15:10.956Z,21.41
2022-11-05T20:18:22.785Z,21.36
2022-11-05T20:21:21.875Z,21.29
2022-11-05T20:24:03.451Z,21.23
2022-11-05T20:26:40.661Z,21.22
2022-11-05T20:32:29.089Z,21.03
2022-11-05T20:35:28.140Z,20.97
2022-11-05T20:38:41.067Z,21.00
2022-11-05T20:41:27.966Z,20.92
2022-11-05T20:44:21.506Z,20.91
2022-11-05T20:47:22.831Z,20.81
2022-11-05T20:49:56.293Z,20.72
2022-11-05T20:52:53.873Z,20.68
2022-11-05T20:55:42.351Z,20.59
2022-11-05T20:58:24.046Z,20.63
2022-11-05T21:01:41.398Z,20.56
2022-11-05T21:04:27.112Z,20.53
2022-11-05T21:07:26.533Z,20.52
2022-11-05T21:10:31.591Z,20.46
2022-11-05T21:13:18.926Z,20.49
2022-11-05T21:16:33.408Z,20.48
2022-11-05T21:19:16.370Z,20.49
2022-11-05T21:22:04.180Z,20.43
2022-11-05T21:25:26.217Z,20.37
2022-11-05T21:28:49.366Z,20.34
2022-11-05T21:31:36.219Z,20.26
2022-11-05T21:34:25.623Z,20.32
2022-11-05T21:37:02.053Z,20.20
2022-11-05T21:39:37.604Z,20.24
2022-11-05T21:42:17.272Z,20.19
2022-11-05T21:44:49.439Z,20.14
2022-11-05T21:47:29.180Z,20.11
2022-11-05T21:49:58.855Z,20.05
2022-11-05T21:52:50.289Z,20.07
2022-11-05T21:55:49.937Z,19.99
2022-11-05T21:58:51.105Z,19.97
2022-11-05T22:01:20.373Z,19.92
2022-11-05T22:03:53.193Z,19.94
2022-11-05T22:06:22.906Z,19.92
2022-11-05T22:08:51.966Z,19.97
2022-11-05T22:11:24.073Z,19.93
2022-11-05T22:13:55.150Z,19.96
2022-11-05T22:16:29.191Z,19.92
2022-11-05T22:19:04.932Z,19.92
2022-11-05T22:21:38.092Z,19.91
2022-11-05T22:24:10.535Z,19.87
2022-11-05T22:26:43.944Z,19.86
2022-11-05T22:29:15.661Z,19.85
2022-11-05T22:31:49.021Z,19.85
2022-11-05T22:34:19.082Z,19.78
2022-11-05T22:36:56.506Z,19.69
2022-11-05T22:39:27.598Z,19.68
2022-11-05T22:42:08.556Z,19.68
2022-11-05T22:44:40.077Z,19.62
2022-11-05T22:47:08.491Z,19.63
2022-11-05T22:49:41.225Z,19.54
2022-11-05T22:52:11.662Z,19.44
2022-11-05T22:54:43.842Z,19.55
2022-11-05T22:57:14.057Z,19.50
2022-11-05T22:59:50.146Z,19.39
2022-11-05T23:02:29.369Z,19.39
2022-11-05T23:05:10.734Z,19.42
2022-11-05T23:07:59.083Z,19.36
2022-11-05T23:10:45.936Z,19.37
2022-11-05T23:13:17.881Z,19.34
2022-11-05T23:16:06.106Z,19.32
2022-11-05T23:19:17.064Z,19.21
2022-11-05T23:22:03.988Z,19.23
2022-11-05T23:24:33.606Z,19.28
2022-11-05T23:27:01.043Z,19.32
2022-11-05T23:29:28.524Z,19.28
2022-11-05T23:32:18.000Z,19.23
2022-11-05T23:34:51.987Z,19.22
2022-11-05T23:40:26.731Z,19.17
2022-11-05T23:43:13.052Z,19.19
2022-11-05T23:46:03.418Z,19.13
2022-11-05T23:48:39.683Z,19.15
2022-11-05T23:51:13.711Z,19.23
2022-11-05T23:53:46.381Z,19.24
2022-11-05T23:56:21.681Z,19.17
2022-11-05T23:58:49.342Z,19.22
